sensor_id;sensor_type;location;lat;lon;timestamp;pressure;altitude;pressure_sealevel;temperature;humidity
51289;BME280;37372;52.294;5.152;2023-03-12T00:01:22;101150.53;;;0.52;70.59
51289;BME280;37372;52.294;5.152;2023-03-12T00:03:49;101145.66;;;0.56;70.74
51289;BME280;37372;52.294;5.152;2023-03-12T00:06:26;101137.09;;;0.60;72.02
51289;BME280;37372;52.294;5.152;2023-03-12T00:08:57;101133.00;;;0.56;70.63
51289;BME280;37372;52.294;5.152;2023-03-12T00:11:27;101130.50;;;0.63;70.87
51289;BME280;37372;52.294;5.152;2023-03-12T00:13:56;101137.31;;;0.67;69.67
51289;BME280;37372;52.294;5.152;2023-03-12T00:16:27;101133.25;;;0.71;69.92
51289;BME280;37372;52.294;5.152;2023-03-12T00:18:54;101131.56;;;0.70;69.20
51289;BME280;37372;52.294;5.152;2023-03-12T00:21:21;101125.53;;;0.76;69.30
51289;BME280;37372;52.294;5.152;2023-03-12T00:23:49;101127.94;;;0.79;68.97
51289;BME280;37372;52.294;5.152;2023-03-12T00:26:28;101127.41;;;0.84;69.37
51289;BME280;37372;52.294;5.152;2023-03-12T00:28:55;101124.09;;;0.90;69.38
51289;BME280;37372;52.294;5.152;2023-03-12T00:31:34;101114.94;;;0.82;68.38
51289;BME280;37372;52.294;5.152;2023-03-12T00:34:00;101115.47;;;0.86;67.52
51289;BME280;37372;52.294;5.152;2023-03-12T00:36:34;101114.94;;;0.82;67.16
51289;BME280;37372;52.294;5.152;2023-03-12T00:39:03;101114.63;;;0.86;67.87
51289;BME280;37372;52.294;5.152;2023-03-12T00:41:29;101119.00;;;0.87;68.10
51289;BME280;37372;52.294;5.152;2023-03-12T00:43:56;101113.63;;;0.87;67.41
51289;BME280;37372;52.294;5.152;2023-03-12T00:46:33;101109.72;;;0.89;67.47
51289;BME280;37372;52.294;5.152;2023-03-12T00:48:58;101105.88;;;0.92;67.47
51289;BME280;37372;52.294;5.152;2023-03-12T00:51:30;101094.38;;;0.90;68.33
51289;BME280;37372;52.294;5.152;2023-03-12T00:53:55;101081.50;;;0.84;67.90
51289;BME280;37372;52.294;5.152;2023-03-12T00:56:31;101080.53;;;0.85;67.87
51289;BME280;37372;52.294;5.152;2023-03-12T00:58:58;101081.69;;;0.82;67.62
51289;BME280;37372;52.294;5.152;2023-03-12T01:01:32;101081.47;;;0.75;67.72
51289;BME280;37372;52.294;5.152;2023-03-12T01:03:58;101083.50;;;0.73;67.97
51289;BME280;37372;52.294;5.152;2023-03-12T01:06:38;101075.25;;;0.75;68.15
51289;BME280;37372;52.294;5.152;2023-03-12T01:09:05;101076.41;;;0.72;67.81
51289;BME280;37372;52.294;5.152;2023-03-12T01:11:38;101088.75;;;0.75;68.17
51289;BME280;37372;52.294;5.152;2023-03-12T01:14:08;101087.59;;;0.77;68.17
51289;BME280;37372;52.294;5.152;2023-03-12T01:16:42;101081.47;;;0.75;68.41
51289;BME280;37372;52.294;5.152;2023-03-12T01:19:31;101084.53;;;0.72;68.08
51289;BME280;37372;52.294;5.152;2023-03-12T01:21:57;101085.88;;;0.76;68.74
51289;BME280;37372;52.294;5.152;2023-03-12T01:24:22;101081.19;;;0.78;68.17
51289;BME280;37372;52.294;5.152;2023-03-12T01:26:48;101081.84;;;0.80;67.60
51289;BME280;37372;52.294;5.152;2023-03-12T01:29:13;101081.50;;;0.84;68.27
51289;BME280;37372;52.294;5.152;2023-03-12T01:31:44;101088.63;;;0.85;68.07
51289;BME280;37372;52.294;5.152;2023-03-12T01:34:11;101079.53;;;0.86;67.64
51289;BME280;37372;52.294;5.152;2023-03-12T01:36:43;101084.59;;;0.89;67.71
51289;BME280;37372;52.294;5.152;2023-03-12T01:39:17;101073.47;;;0.92;67.80
51289;BME280;37372;52.294;5.152;2023-03-12T01:41:42;101073.31;;;0.93;67.89
51289;BME280;37372;52.294;5.152;2023-03-12T01:44:12;101067.72;;;0.95;68.14
51289;BME280;37372;52.294;5.152;2023-03-12T01:46:47;101072.13;;;0.96;67.90
51289;BME280;37372;52.294;5.152;2023-03-12T01:49:15;101066.06;;;1.02;68.17
51289;BME280;37372;52.294;5.152;2023-03-12T01:51:49;101058.66;;;1.04;68.21
51289;BME280;37372;52.294;5.152;2023-03-12T01:54:24;101055.78;;;1.05;68.00
51289;BME280;37372;52.294;5.152;2023-03-12T01:56:56;101049.53;;;1.05;67.72
51289;BME280;37372;52.294;5.152;2023-03-12T01:59:30;101053.59;;;1.09;67.98
51289;BME280;37372;52.294;5.152;2023-03-12T02:02:04;101049.19;;;1.08;67.33
51289;BME280;37372;52.294;5.152;2023-03-12T02:04:38;101042.47;;;1.12;67.00
51289;BME280;37372;52.294;5.152;2023-03-12T02:07:16;101047.22;;;1.10;67.17
51289;BME280;37372;52.294;5.152;2023-03-12T02:09:45;101039.44;;;1.15;67.60
51289;BME280;37372;52.294;5.152;2023-03-12T02:12:14;101035.88;;;1.15;67.24
51289;BME280;37372;52.294;5.152;2023-03-12T02:14:44;101029.66;;;1.22;67.64
51289;BME280;37372;52.294;5.152;2023-03-12T02:17:11;101023.56;;;1.20;66.73
51289;BME280;37372;52.294;5.152;2023-03-12T02:22:38;101019.66;;;1.15;67.47
51289;BME280;37372;52.294;5.152;2023-03-12T02:25:28;101021.53;;;1.22;67.36
51289;BME280;37372;52.294;5.152;2023-03-12T02:28:00;101028.50;;;1.25;67.77
51289;BME280;37372;52.294;5.152;2023-03-12T02:30:29;101018.19;;;1.28;67.82
51289;BME280;37372;52.294;5.152;2023-03-12T02:32:57;101011.63;;;1.31;66.86
51289;BME280;37372;52.294;5.152;2023-03-12T02:35:27;100999.25;;;1.28;66.66
51289;BME280;37372;52.294;5.152;2023-03-12T02:41:28;100988.13;;;1.23;67.63
51289;BME280;37372;52.294;5.152;2023-03-12T02:44:30;100974.94;;;1.28;67.90
51289;BME280;37372;52.294;5.152;2023-03-12T02:46:57;100988.13;;;1.31;68.78
51289;BME280;37372;52.294;5.152;2023-03-12T02:49:27;100983.75;;;1.30;68.21
51289;BME280;37372;52.294;5.152;2023-03-12T02:51:56;100980.69;;;1.33;68.83
51289;BME280;37372;52.294;5.152;2023-03-12T02:54:31;100965.19;;;1.35;68.68
51289;BME280;37372;52.294;5.152;2023-03-12T02:56:58;100967.00;;;1.35;68.78
51289;BME280;37372;52.294;5.152;2023-03-12T02:59:24;100959.59;;;1.37;68.69
51289;BME280;37372;52.294;5.152;2023-03-12T03:02:00;100957.06;;;1.44;68.53
51289;BME280;37372;52.294;5.152;2023-03-12T03:04:27;100949.28;;;1.32;68.46
51289;BME280;37372;52.294;5.152;2023-03-12T03:06:57;100953.00;;;1.40;68.49
51289;BME280;37372;52.294;5.152;2023-03-12T03:09:26;100948.78;;;1.29;67.96
51289;BME280;37372;52.294;5.152;2023-03-12T03:12:00;100945.06;;;1.30;67.79
51289;BME280;37372;52.294;5.152;2023-03-12T03:14:26;100940.50;;;1.30;68.08
51289;BME280;37372;52.294;5.152;2023-03-12T03:17:03;100933.41;;;1.29;68.24
51289;BME280;37372;52.294;5.152;2023-03-12T03:19:30;100928.84;;;1.30;67.95
51289;BME280;37372;52.294;5.152;2023-03-12T03:22:05;100913.31;;;1.24;68.58
51289;BME280;37372;52.294;5.152;2023-03-12T03:24:30;100908.94;;;1.23;68.17
51289;BME280;37372;52.294;5.152;2023-03-12T03:27:05;100904.69;;;1.28;68.06
51289;BME280;37372;52.294;5.152;2023-03-12T03:29:32;100910.44;;;1.25;68.23
51289;BME280;37372;52.294;5.152;2023-03-12T03:32:03;100900.28;;;1.27;68.00
51289;BME280;37372;52.294;5.152;2023-03-12T03:34:29;100891.88;;;1.30;67.83
51289;BME280;37372;52.294;5.152;2023-03-12T03:37:09;100894.38;;;1.32;67.91
51289;BME280;37372;52.294;5.152;2023-03-12T03:39:47;100886.94;;;1.34;67.87
51289;BME280;37372;52.294;5.152;2023-03-12T03:42:13;100883.38;;;1.42;66.79
51289;BME280;37372;52.294;5.152;2023-03-12T03:44:39;100882.22;;;1.44;66.08
51289;BME280;37372;52.294;5.152;2023-03-12T03:47:14;100879.69;;;1.51;66.80
51289;BME280;37372;52.294;5.152;2023-03-12T03:49:42;100875.97;;;1.44;66.57
51289;BME280;37372;52.294;5.152;2023-03-12T03:52:12;100871.41;;;1.44;66.55
51289;BME280;37372;52.294;5.152;2023-03-12T03:54:38;100873.59;;;1.49;66.76
51289;BME280;37372;52.294;5.152;2023-03-12T03:57:11;100880.00;;;1.56;67.04
51289;BME280;37372;52.294;5.152;2023-03-12T03:59:36;100876.97;;;1.59;66.74
51289;BME280;37372;52.294;5.152;2023-03-12T04:02:06;100862.59;;;1.58;66.52
51289;BME280;37372;52.294;5.152;2023-03-12T04:04:32;100863.25;;;1.60;66.76
51289;BME280;37372;52.294;5.152;2023-03-12T04:07:13;100861.06;;;1.64;66.82
51289;BME280;37372;52.294;5.152;2023-03-12T04:09:38;100863.41;;;1.67;66.46
51289;BME280;37372;52.294;5.152;2023-03-12T04:12:07;100861.91;;;1.65;66.43
51289;BME280;37372;52.294;5.152;2023-03-12T04:14:33;100864.09;;;1.69;66.55
51289;BME280;37372;52.294;5.152;2023-03-12T04:17:09;100870.00;;;1.81;65.80
51289;BME280;37372;52.294;5.152;2023-03-12T04:19:35;100861.38;;;1.77;66.22
51289;BME280;37372;52.294;5.152;2023-03-12T04:22:19;100863.06;;;1.78;67.02
51289;BME280;37372;52.294;5.152;2023-03-12T04:24:45;100863.75;;;1.80;68.49
51289;BME280;37372;52.294;5.152;2023-03-12T04:27:16;100856.09;;;1.84;68.89
51289;BME280;37372;52.294;5.152;2023-03-12T04:29:42;100860.69;;;1.83;69.71
51289;BME280;37372;52.294;5.152;2023-03-12T04:32:17;100853.25;;;1.77;71.25
51289;BME280;37372;52.294;5.152;2023-03-12T04:34:43;100843.47;;;1.76;72.45
51289;BME280;37372;52.294;5.152;2023-03-12T04:37:15;100840.94;;;1.75;73.61
51289;BME280;37372;52.294;5.152;2023-03-12T04:39:44;100840.09;;;1.74;74.39
51289;BME280;37372;52.294;5.152;2023-03-12T04:42:15;100836.03;;;1.70;75.50
51289;BME280;37372;52.294;5.152;2023-03-12T04:44:42;100826.56;;;1.66;76.17
51289;BME280;37372;52.294;5.152;2023-03-12T04:47:26;100827.59;;;1.65;77.63
51289;BME280;37372;52.294;5.152;2023-03-12T04:49:52;100821.53;;;1.63;78.22
51289;BME280;37372;52.294;5.152;2023-03-12T04:52:24;100805.84;;;1.50;78.93
51289;BME280;37372;52.294;5.152;2023-03-12T04:54:52;100797.09;;;1.48;79.81
51289;BME280;37372;52.294;5.152;2023-03-12T04:57:26;100796.91;;;1.50;79.91
51289;BME280;37372;52.294;5.152;2023-03-12T04:59:52;100794.53;;;1.47;79.79
51289;BME280;37372;52.294;5.152;2023-03-12T05:02:18;100792.19;;;1.44;80.60
51289;BME280;37372;52.294;5.152;2023-03-12T05:05:05;100784.06;;;1.44;80.99
51289;BME280;37372;52.294;5.152;2023-03-12T05:07:33;100777.28;;;1.48;80.56
51289;BME280;37372;52.294;5.152;2023-03-12T05:09:59;100768.03;;;1.42;80.52
51289;BME280;37372;52.294;5.152;2023-03-12T05:12:25;100766.50;;;1.40;80.30
51289;BME280;37372;52.294;5.152;2023-03-12T05:15:07;100757.22;;;1.42;80.69
51289;BME280;37372;52.294;5.152;2023-03-12T05:17:33;100751.13;;;1.40;80.96
51289;BME280;37372;52.294;5.152;2023-03-12T05:19:59;100757.03;;;1.44;80.87
51289;BME280;37372;52.294;5.152;2023-03-12T05:22:29;100753.50;;;1.43;80.46
51289;BME280;37372;52.294;5.152;2023-03-12T05:24:54;100754.34;;;1.44;81.42
51289;BME280;37372;52.294;5.152;2023-03-12T05:27:25;100765.63;;;1.47;80.29
51289;BME280;37372;52.294;5.152;2023-03-12T05:29:51;100763.78;;;1.48;80.90
51289;BME280;37372;52.294;5.152;2023-03-12T05:32:33;100757.72;;;1.46;81.08
51289;BME280;37372;52.294;5.152;2023-03-12T05:35:00;100743.53;;;1.44;81.71
51289;BME280;37372;52.294;5.152;2023-03-12T05:37:35;100747.25;;;1.43;81.27
51289;BME280;37372;52.294;5.152;2023-03-12T05:40:00;100739.63;;;1.46;81.13
51289;BME280;37372;52.294;5.152;2023-03-12T05:42:30;100745.72;;;1.40;81.22
51289;BME280;37372;52.294;5.152;2023-03-12T05:44:56;100740.00;;;1.43;80.82
51289;BME280;37372;52.294;5.152;2023-03-12T05:47:36;100741.50;;;1.46;81.25
51289;BME280;37372;52.294;5.152;2023-03-12T05:50:05;100742.16;;;1.48;80.92
51289;BME280;37372;52.294;5.152;2023-03-12T05:52:33;100735.06;;;1.47;80.85
51289;BME280;37372;52.294;5.152;2023-03-12T05:54:59;100740.78;;;1.52;81.60
51289;BME280;37372;52.294;5.152;2023-03-12T05:57:36;100741.31;;;1.55;80.72
51289;BME280;37372;52.294;5.152;2023-03-12T06:00:01;100734.88;;;1.56;81.25
51289;BME280;37372;52.294;5.152;2023-03-12T06:02:30;100747.00;;;1.60;81.21
51289;BME280;37372;52.294;5.152;2023-03-12T06:04:57;100732.97;;;1.65;81.28
51289;BME280;37372;52.294;5.152;2023-03-12T06:07:42;100728.06;;;1.69;80.51
51289;BME280;37372;52.294;5.152;2023-03-12T06:10:08;100738.50;;;1.72;80.61
51289;BME280;37372;52.294;5.152;2023-03-12T06:12:38;100743.41;;;1.76;80.87
51289;BME280;37372;52.294;5.152;2023-03-12T06:15:07;100739.00;;;1.75;80.99
51289;BME280;37372;52.294;5.152;2023-03-12T06:17:39;100736.00;;;1.70;80.84
51289;BME280;37372;52.294;5.152;2023-03-12T06:20:05;100734.78;;;1.81;81.26
51289;BME280;37372;52.294;5.152;2023-03-12T06:22:44;100738.31;;;1.81;81.13
51289;BME280;37372;52.294;5.152;2023-03-12T06:25:12;100736.44;;;1.82;81.48
51289;BME280;37372;52.294;5.152;2023-03-12T06:27:40;100738.66;;;1.78;81.72
51289;BME280;37372;52.294;5.152;2023-03-12T06:30:20;100736.84;;;1.71;82.53
51289;BME280;37372;52.294;5.152;2023-03-12T06:32:46;100733.47;;;1.69;83.03
51289;BME280;37372;52.294;5.152;2023-03-12T06:35:12;100717.91;;;1.71;83.64
51289;BME280;37372;52.294;5.152;2023-03-12T06:37:43;100711.84;;;1.69;84.06
51289;BME280;37372;52.294;5.152;2023-03-12T06:40:09;100695.63;;;1.69;84.95
51289;BME280;37372;52.294;5.152;2023-03-12T06:42:42;100692.91;;;1.69;84.78
51289;BME280;37372;52.294;5.152;2023-03-12T06:45:08;100688.69;;;1.66;85.03
51289;BME280;37372;52.294;5.152;2023-03-12T06:47:44;100699.03;;;1.62;85.09
51289;BME280;37372;52.294;5.152;2023-03-12T06:50:12;100680.22;;;1.69;85.19
51289;BME280;37372;52.294;5.152;2023-03-12T06:52:44;100682.25;;;1.67;85.33
51289;BME280;37372;52.294;5.152;2023-03-12T06:55:21;100685.66;;;1.61;86.20
51289;BME280;37372;52.294;5.152;2023-03-12T06:57:47;100682.25;;;1.67;86.34
51289;BME280;37372;52.294;5.152;2023-03-12T07:00:13;100683.78;;;1.70;86.29
51289;BME280;37372;52.294;5.152;2023-03-12T07:03:00;100670.56;;;1.75;87.04
51289;BME280;37372;52.294;5.152;2023-03-12T07:05:26;100658.34;;;1.79;86.91
51289;BME280;37372;52.294;5.152;2023-03-12T07:07:51;100651.16;;;1.71;86.81
51289;BME280;37372;52.294;5.152;2023-03-12T07:10:17;100644.50;;;1.82;87.47
51289;BME280;37372;52.294;5.152;2023-03-12T07:12:48;100654.63;;;1.80;87.04
51289;BME280;37372;52.294;5.152;2023-03-12T07:15:14;100657.34;;;1.80;86.76
51289;BME280;37372;52.294;5.152;2023-03-12T07:17:51;100671.97;;;1.94;86.43
51289;BME280;37372;52.294;5.152;2023-03-12T07:20:18;100675.22;;;1.89;86.74
51289;BME280;37372;52.294;5.152;2023-03-12T07:22:52;100681.72;;;2.03;86.14
51289;BME280;37372;52.294;5.152;2023-03-12T07:25:17;100680.38;;;1.99;86.11
51289;BME280;37372;52.294;5.152;2023-03-12T07:27:54;100676.84;;;1.98;86.61
51289;BME280;37372;52.294;5.152;2023-03-12T07:30:21;100668.78;;;1.90;86.68
51289;BME280;37372;52.294;5.152;2023-03-12T07:32:47;100695.25;;;2.03;87.07
51289;BME280;37372;52.294;5.152;2023-03-12T07:35:12;100693.31;;;2.11;87.02
51289;BME280;37372;52.294;5.152;2023-03-12T07:37:51;100696.41;;;2.08;86.89
51289;BME280;37372;52.294;5.152;2023-03-12T07:40:16;100700.25;;;2.14;86.99
51289;BME280;37372;52.294;5.152;2023-03-12T07:43:13;100706.69;;;2.13;86.71
51289;BME280;37372;52.294;5.152;2023-03-12T07:45:48;100705.91;;;2.27;86.71
51289;BME280;37372;52.294;5.152;2023-03-12T07:48:14;100706.44;;;2.23;86.69
51289;BME280;37372;52.294;5.152;2023-03-12T07:50:40;100701.69;;;2.25;87.18
51289;BME280;37372;52.294;5.152;2023-03-12T07:53:14;100706.88;;;2.34;87.20
51289;BME280;37372;52.294;5.152;2023-03-12T07:55:57;100702.78;;;2.38;86.73
51289;BME280;37372;52.294;5.152;2023-03-12T07:58:58;100697.22;;;2.32;87.14
51289;BME280;37372;52.294;5.152;2023-03-12T08:01:24;100681.28;;;2.37;87.27
51289;BME280;37372;52.294;5.152;2023-03-12T08:03:55;100679.41;;;2.37;87.59
51289;BME280;37372;52.294;5.152;2023-03-12T08:06:21;100683.38;;;2.50;87.19
51289;BME280;37372;52.294;5.152;2023-03-12T08:08:46;100683.75;;;2.47;87.60
51289;BME280;37372;52.294;5.152;2023-03-12T08:11:31;100684.22;;;2.50;87.59
51289;BME280;37372;52.294;5.152;2023-03-12T08:14:00;100675.06;;;2.51;87.76
51289;BME280;37372;52.294;5.152;2023-03-12T08:16:32;100677.25;;;2.56;87.58
51289;BME280;37372;52.294;5.152;2023-03-12T08:18:58;100679.44;;;2.75;87.39
51289;BME280;37372;52.294;5.152;2023-03-12T08:21:24;100682.72;;;2.70;87.14
51289;BME280;37372;52.294;5.152;2023-03-12T08:23:50;100689.63;;;2.73;87.46
51289;BME280;37372;52.294;5.152;2023-03-12T08:26:15;100688.50;;;2.82;87.59
51289;BME280;37372;52.294;5.152;2023-03-12T08:28:41;100685.13;;;2.80;87.52
51289;BME280;37372;52.294;5.152;2023-03-12T08:31:07;100685.06;;;2.88;87.61
51289;BME280;37372;52.294;5.152;2023-03-12T08:33:35;100688.50;;;2.82;87.79
51289;BME280;37372;52.294;5.152;2023-03-12T08:36:01;100693.56;;;2.85;88.47
51289;BME280;37372;52.294;5.152;2023-03-12T08:38:27;100684.81;;;2.98;87.56
51289;BME280;37372;52.294;5.152;2023-03-12T08:41:04;100688.53;;;2.97;88.12
51289;BME280;37372;52.294;5.152;2023-03-12T08:43:30;100686.78;;;3.04;88.55
51289;BME280;37372;52.294;5.152;2023-03-12T08:46:04;100694.53;;;3.37;87.80
51289;BME280;37372;52.294;5.152;2023-03-12T08:48:33;100683.88;;;3.35;87.73
51289;BME280;37372;52.294;5.152;2023-03-12T08:51:03;100697.06;;;3.38;87.68
51289;BME280;37372;52.294;5.152;2023-03-12T08:53:35;100690.88;;;3.44;87.97
51289;BME280;37372;52.294;5.152;2023-03-12T08:56:02;100683.66;;;3.51;88.31
51289;BME280;37372;52.294;5.152;2023-03-12T08:58:37;100690.28;;;3.64;88.36
51289;BME280;37372;52.294;5.152;2023-03-12T09:01:10;100696.19;;;3.67;87.93
51289;BME280;37372;52.294;5.152;2023-03-12T09:03:37;100692.44;;;3.68;88.10
51289;BME280;37372;52.294;5.152;2023-03-12T09:06:15;100690.84;;;3.74;88.13
51289;BME280;37372;52.294;5.152;2023-03-12T09:08:44;100684.28;;;3.83;87.84
51289;BME280;37372;52.294;5.152;2023-03-12T09:11:13;100676.41;;;3.88;87.94
51289;BME280;37372;52.294;5.152;2023-03-12T09:13:43;100682.53;;;3.97;87.84
51289;BME280;37372;52.294;5.152;2023-03-12T09:16:08;100681.00;;;4.09;87.17
51289;BME280;37372;52.294;5.152;2023-03-12T09:18:34;100683.59;;;4.17;87.72
51289;BME280;37372;52.294;5.152;2023-03-12T09:21:05;100677.13;;;4.18;87.60
51289;BME280;37372;52.294;5.152;2023-03-12T09:23:34;100673.69;;;4.31;87.61
51289;BME280;37372;52.294;5.152;2023-03-12T09:26:00;100678.91;;;4.26;87.65
51289;BME280;37372;52.294;5.152;2023-03-12T09:28:29;100671.31;;;4.43;87.65
51289;BME280;37372;52.294;5.152;2023-03-12T09:31:00;100675.63;;;4.37;87.84
51289;BME280;37372;52.294;5.152;2023-03-12T09:33:29;100674.13;;;4.56;88.56
51289;BME280;37372;52.294;5.152;2023-03-12T09:36:09;100673.72;;;4.80;88.06
51289;BME280;37372;52.294;5.152;2023-03-12T09:38:37;100679.84;;;4.89;88.10
51289;BME280;37372;52.294;5.152;2023-03-12T09:41:16;100686.78;;;4.92;87.89
51289;BME280;37372;52.294;5.152;2023-03-12T09:43:57;100684.69;;;4.94;88.15
51289;BME280;37372;52.294;5.152;2023-03-12T09:46:45;100675.47;;;5.23;87.96
51289;BME280;37372;52.294;5.152;2023-03-12T09:49:47;100686.44;;;5.36;87.94
51289;BME280;37372;52.294;5.152;2023-03-12T09:52:30;100686.03;;;5.39;88.18
51289;BME280;37372;52.294;5.152;2023-03-12T09:55:10;100691.28;;;5.47;88.67
51289;BME280;37372;52.294;5.152;2023-03-12T09:57:39;100687.72;;;5.47;88.80
51289;BME280;37372;52.294;5.152;2023-03-12T10:00:15;100689.06;;;5.57;88.11
51289;BME280;37372;52.294;5.152;2023-03-12T10:06:09;100690.19;;;5.76;88.40
51289;BME280;37372;52.294;5.152;2023-03-12T10:12:07;100685.47;;;5.98;87.99
51289;BME280;37372;52.294;5.152;2023-03-12T10:27:10;100675.72;;;7.03;86.85
51289;BME280;37372;52.294;5.152;2023-03-12T10:29:40;100685.34;;;7.25;87.03
51289;BME280;37372;52.294;5.152;2023-03-12T10:34:46;100694.06;;;7.60;85.28
51289;BME280;37372;52.294;5.152;2023-03-12T10:39:38;100691.09;;;7.69;85.24
51289;BME280;37372;52.294;5.152;2023-03-12T10:42:23;100686.47;;;8.14;84.35
51289;BME280;37372;52.294;5.152;2023-03-12T10:44:58;100695.38;;;7.96;84.23
51289;BME280;37372;52.294;5.152;2023-03-12T10:47:31;100691.44;;;7.92;83.98
51289;BME280;37372;52.294;5.152;2023-03-12T10:50:26;100694.84;;;7.74;84.92
51289;BME280;37372;52.294;5.152;2023-03-12T10:56:20;100702.47;;;7.59;85.92
51289;BME280;37372;52.294;5.152;2023-03-12T10:58:57;100704.59;;;7.50;85.80
51289;BME280;37372;52.294;5.152;2023-03-12T11:01:52;100690.50;;;7.60;85.92
51289;BME280;37372;52.294;5.152;2023-03-12T11:04:23;100698.53;;;7.42;86.07
51289;BME280;37372;52.294;5.152;2023-03-12T11:09:38;100707.94;;;7.46;86.43
51289;BME280;37372;52.294;5.152;2023-03-12T11:12:22;100718.28;;;7.37;86.65
51289;BME280;37372;52.294;5.152;2023-03-12T11:15:27;100722.28;;;7.35;86.98
51289;BME280;37372;52.294;5.152;2023-03-12T11:21:14;100722.81;;;7.63;86.46
51289;BME280;37372;52.294;5.152;2023-03-12T11:23:53;100726.34;;;7.77;85.60
51289;BME280;37372;52.294;5.152;2023-03-12T11:34:48;100725.94;;;7.80;84.63
51289;BME280;37372;52.294;5.152;2023-03-12T11:43:53;100717.31;;;8.21;83.58
51289;BME280;37372;52.294;5.152;2023-03-12T11:49:35;100703.31;;;8.49;82.52
51289;BME280;37372;52.294;5.152;2023-03-12T11:55:25;100692.56;;;8.54;81.59
51289;BME280;37372;52.294;5.152;2023-03-12T12:01:47;100703.81;;;8.39;82.04
51289;BME280;37372;52.294;5.152;2023-03-12T12:15:45;100675.97;;;8.49;80.21
51289;BME280;37372;52.294;5.152;2023-03-12T12:27:27;100654.22;;;8.61;80.43
51289;BME280;37372;52.294;5.152;2023-03-12T12:33:07;100656.72;;;8.87;78.92
51289;BME280;37372;52.294;5.152;2023-03-12T12:35:41;100661.47;;;8.74;78.95
51289;BME280;37372;52.294;5.152;2023-03-12T12:41:30;100658.28;;;9.02;77.48
51289;BME280;37372;52.294;5.152;2023-03-12T12:44:14;100656.84;;;8.99;77.79
51289;BME280;37372;52.294;5.152;2023-03-12T12:47:00;100649.66;;;9.23;77.12
51289;BME280;37372;52.294;5.152;2023-03-12T12:52:25;100641.72;;;9.33;75.72
51289;BME280;37372;52.294;5.152;2023-03-12T13:02:39;100645.63;;;9.62;74.65
51289;BME280;37372;52.294;5.152;2023-03-12T13:07:43;100646.69;;;9.80;74.40
51289;BME280;37372;52.294;5.152;2023-03-12T13:13:01;100640.66;;;9.53;73.92
51289;BME280;37372;52.294;5.152;2023-03-12T13:37:59;100659.75;;;9.59;73.23
51289;BME280;37372;52.294;5.152;2023-03-12T13:43:12;100667.69;;;9.97;71.69
51289;BME280;37372;52.294;5.152;2023-03-12T13:46:02;100654.53;;;10.36;70.04
51289;BME280;37372;52.294;5.152;2023-03-12T13:48:30;100660.78;;;10.55;69.95
51289;BME280;37372;52.294;5.152;2023-03-12T13:51:15;100654.44;;;10.43;68.63
51289;BME280;37372;52.294;5.152;2023-03-12T13:54:19;100639.44;;;10.69;67.36
51289;BME280;37372;52.294;5.152;2023-03-12T13:59:47;100654.66;;;10.41;67.65
51289;BME280;37372;52.294;5.152;2023-03-12T14:02:38;100647.38;;;10.35;67.62
51289;BME280;37372;52.294;5.152;2023-03-12T14:05:15;100646.06;;;10.26;67.73
51289;BME280;37372;52.294;5.152;2023-03-12T14:19:15;100672.09;;;10.47;64.80
51289;BME280;37372;52.294;5.152;2023-03-12T14:21:43;100692.13;;;10.47;64.92
51289;BME280;37372;52.294;5.152;2023-03-12T14:24:32;100695.84;;;10.23;64.88
51289;BME280;37372;52.294;5.152;2023-03-12T14:27:00;100711.06;;;10.19;65.33
51289;BME280;37372;52.294;5.152;2023-03-12T14:29:37;100711.53;;;10.16;65.26
51289;BME280;37372;52.294;5.152;2023-03-12T14:32:20;100697.91;;;10.09;65.72
51289;BME280;37372;52.294;5.152;2023-03-12T14:35:19;100689.69;;;10.09;64.99
51289;BME280;37372;52.294;5.152;2023-03-12T14:37:59;100697.66;;;10.11;64.28
51289;BME280;37372;52.294;5.152;2023-03-12T14:41:07;100694.25;;;10.15;65.04
51289;BME280;37372;52.294;5.152;2023-03-12T14:43:43;100700.31;;;10.17;64.74
51289;BME280;37372;52.294;5.152;2023-03-12T14:46:33;100695.31;;;10.33;63.76
51289;BME280;37372;52.294;5.152;2023-03-12T14:49:26;100701.25;;;10.29;64.12
51289;BME280;37372;52.294;5.152;2023-03-12T14:51:54;100706.72;;;10.29;64.16
51289;BME280;37372;52.294;5.152;2023-03-12T14:54:29;100701.78;;;10.20;63.54
51289;BME280;37372;52.294;5.152;2023-03-12T14:56:55;100703.38;;;10.27;63.77
51289;BME280;37372;52.294;5.152;2023-03-12T14:59:32;100702.16;;;10.23;64.05
51289;BME280;37372;52.294;5.152;2023-03-12T15:04:44;100695.31;;;10.33;63.63
51289;BME280;37372;52.294;5.152;2023-03-12T15:07:18;100701.16;;;10.36;63.91
51289;BME280;37372;52.294;5.152;2023-03-12T15:09:48;100694.53;;;10.44;63.45
51289;BME280;37372;52.294;5.152;2023-03-12T15:12:25;100678.03;;;10.32;64.10
51289;BME280;37372;52.294;5.152;2023-03-12T15:21:00;100682.38;;;10.03;65.61
51289;BME280;37372;52.294;5.152;2023-03-12T15:23:48;100679.38;;;9.93;66.30
51289;BME280;37372;52.294;5.152;2023-03-12T15:32:13;100661.28;;;10.03;66.82
51289;BME280;37372;52.294;5.152;2023-03-12T15:34:52;100666.34;;;10.07;67.75
51289;BME280;37372;52.294;5.152;2023-03-12T15:37:32;100666.69;;;10.10;67.50
51289;BME280;37372;52.294;5.152;2023-03-12T15:40:25;100668.69;;;10.03;67.51
51289;BME280;37372;52.294;5.152;2023-03-12T15:42:52;100674.16;;;10.03;67.45
51289;BME280;37372;52.294;5.152;2023-03-12T15:47:59;100665.28;;;9.89;68.12
51289;BME280;37372;52.294;5.152;2023-03-12T15:50:51;100669.19;;;9.82;67.98
51289;BME280;37372;52.294;5.152;2023-03-12T15:56:25;100666.06;;;9.78;68.09
51289;BME280;37372;52.294;5.152;2023-03-12T16:01:55;100663.19;;;9.55;68.13
51289;BME280;37372;52.294;5.152;2023-03-12T16:04:34;100662.50;;;9.59;68.69
51289;BME280;37372;52.294;5.152;2023-03-12T16:07:01;100657.25;;;9.58;68.00
51289;BME280;37372;52.294;5.152;2023-03-12T16:09:31;100645.84;;;9.61;68.54
51289;BME280;37372;52.294;5.152;2023-03-12T16:11:57;100643.28;;;9.47;68.80
51289;BME280;37372;52.294;5.152;2023-03-12T16:14:35;100643.56;;;9.58;68.35
51289;BME280;37372;52.294;5.152;2023-03-12T16:17:01;100643.41;;;9.53;68.43
51289;BME280;37372;52.294;5.152;2023-03-12T16:19:38;100641.75;;;9.52;69.32